Time;durP1;ratioP1;P1;durP2;ratioP2;P2;SDS_P1;SDS_P2;PMS_P1;PMS_P2;Temp;Humidity;BMP_temperature;BMP_pressure;BME280_temperature;BME280_humidity;BME280_pressure;Samples;Min_cycle;Max_cycle;Signal;HPM_P1;HPM_P2
2021/12/29 00:01:00;;;;;;;;;;;8.40;93.30;;;;;;5073992;28;20302;-71
2021/12/29 00:03:26;;;;;;;;;;;8.30;93.40;;;;;;5074009;28;19948;-71
2021/12/29 00:05:52;;;;;;;;;;;8.20;93.60;;;;;;5072636;28;19946;-71
2021/12/29 00:08:17;;;;;;;;;;;8.30;93.60;;;;;;5072096;28;19950;-71
2021/12/29 00:10:43;;;;;;;;;;;8.20;93.50;;;;;;5073777;28;20024;-71
2021/12/29 00:13:08;;;;;;;;;;;8.10;93.70;;;;;;5073775;28;19939;-71
2021/12/29 00:15:36;;;;;;;;;;;8.10;94.00;;;;;;5073794;28;19947;-71
2021/12/29 00:18:02;;;;;;;;;;;8.10;94.10;;;;;;5078290;28;19942;-71
2021/12/29 00:20:29;;;;;;;;;;;8.10;94.10;;;;;;5093610;28;20324;-71
2021/12/29 00:22:58;;;;;;;;;;;8.00;94.10;;;;;;5092650;28;19948;-71
2021/12/29 00:25:24;;;;;;;;;;;7.90;94.20;;;;;;5092585;28;19940;-71
2021/12/29 00:27:50;;;;;;;;;;;7.90;94.30;;;;;;5093642;28;19946;-71
2021/12/29 00:30:16;;;;;;;;;;;7.80;94.40;;;;;;5093704;28;20384;-71
2021/12/29 00:32:41;;;;;;;;;;;7.80;94.50;;;;;;5093752;28;19949;-71
2021/12/29 00:35:11;;;;;;;;;;;7.80;94.50;;;;;;5092418;28;19939;-71
2021/12/29 00:37:36;;;;;;;;;;;7.80;94.60;;;;;;5093664;28;20405;-71
2021/12/29 00:40:03;;;;;;;;;;;7.70;94.60;;;;;;5093603;28;19944;-72
2021/12/29 00:42:28;;;;;;;;;;;7.50;94.90;;;;;;5093504;28;19937;-71
2021/12/29 00:44:54;;;;;;;;;;;7.50;94.90;;;;;;5093554;28;20351;-71
2021/12/29 00:47:19;;;;;;;;;;;7.40;94.80;;;;;;5093528;28;19978;-71
2021/12/29 00:49:46;;;;;;;;;;;7.50;95.00;;;;;;5072735;28;19944;-71
2021/12/29 00:52:12;;;;;;;;;;;7.60;95.00;;;;;;5073217;28;19947;-71
2021/12/29 00:54:39;;;;;;;;;;;7.60;95.10;;;;;;5073199;28;19981;-71
2021/12/29 00:57:04;;;;;;;;;;;7.70;95.30;;;;;;5073161;28;19982;-72
2021/12/29 00:59:30;;;;;;;;;;;7.80;95.40;;;;;;5073116;28;20346;-71
2021/12/29 01:01:56;;;;;;;;;;;8.00;95.40;;;;;;5073114;28;19946;-72
2021/12/29 01:04:22;;;;;;;;;;;8.00;95.40;;;;;;5072951;28;19947;-71
2021/12/29 01:06:47;;;;;;;;;;;8.10;95.40;;;;;;5075333;28;19942;-71
2021/12/29 01:09:13;;;;;;;;;;;8.10;95.30;;;;;;5092896;28;19985;-72
2021/12/29 01:11:39;;;;;;;;;;;8.20;95.40;;;;;;5093229;28;20297;-72
2021/12/29 01:14:07;;;;;;;;;;;8.30;95.40;;;;;;5091880;28;20426;-72
2021/12/29 01:18:58;;;;;;;;;;;8.40;94.30;;;;;;5093380;28;20037;-72
2021/12/29 01:21:24;;;;;;;;;;;8.40;93.80;;;;;;5093137;28;19944;-71
2021/12/29 01:23:49;;;;;;;;;;;8.40;93.50;;;;;;5093052;28;19986;-71
2021/12/29 01:26:17;;;;;;;;;;;8.20;93.40;;;;;;5092963;28;19944;-71
2021/12/29 01:28:43;;;;;;;;;;;8.10;93.60;;;;;;5092987;28;19988;-71
2021/12/29 01:31:08;;;;;;;;;;;8.10;93.90;;;;;;5093316;28;19943;-71
2021/12/29 01:33:34;;;;;;;;;;;8.10;94.10;;;;;;5091108;28;19958;-71
2021/12/29 01:35:59;;;;;;;;;;;8.20;94.20;;;;;;5071520;28;20031;-72
2021/12/29 01:38:25;;;;;;;;;;;8.30;94.20;;;;;;5071482;28;20539;-71
2021/12/29 01:40:50;;;;;;;;;;;8.30;94.20;;;;;;5071447;28;19939;-71
2021/12/29 01:43:17;;;;;;;;;;;8.40;94.20;;;;;;5071458;28;19992;-71
2021/12/29 01:45:43;;;;;;;;;;;8.40;94.00;;;;;;5072741;28;20042;-72
2021/12/29 01:48:09;;;;;;;;;;;8.40;93.60;;;;;;5072688;28;20369;-71
2021/12/29 01:50:35;;;;;;;;;;;8.40;93.40;;;;;;5072603;28;19971;-71
2021/12/29 01:53:07;;;;;;;;;;;8.40;93.10;;;;;;5072634;28;19942;-71
2021/12/29 01:55:33;;;;;;;;;;;8.20;92.90;;;;;;5072947;28;19943;-71
2021/12/29 01:57:59;;;;;;;;;;;8.10;93.10;;;;;;5072617;28;19948;-71
2021/12/29 02:00:27;;;;;;;;;;;8.00;93.20;;;;;;5072570;28;20397;-71
2021/12/29 02:02:53;;;;;;;;;;;7.90;93.40;;;;;;5072568;28;19952;-71
2021/12/29 02:05:19;;;;;;;;;;;7.80;93.70;;;;;;5088256;28;19983;-71
2021/12/29 02:07:45;;;;;;;;;;;7.70;93.90;;;;;;5092624;28;19980;-71
2021/12/29 02:10:12;;;;;;;;;;;7.70;94.10;;;;;;5091124;28;19989;-71
2021/12/29 02:12:37;;;;;;;;;;;7.80;94.30;;;;;;5092666;28;19946;-71
2021/12/29 02:15:04;;;;;;;;;;;8.00;94.40;;;;;;5092884;28;20292;-71
2021/12/29 02:17:30;;;;;;;;;;;8.10;94.40;;;;;;5095325;28;19936;-71
2021/12/29 02:19:58;;;;;;;;;;;8.20;93.90;;;;;;5094986;28;20433;-71
2021/12/29 02:22:40;;;;;;;;;;;8.20;93.20;;;;;;5095015;28;19948;-71
2021/12/29 02:25:51;;;;;;;;;;;8.20;93.00;;;;;;5096196;28;19938;-70
2021/12/29 02:27:53;;;;;;;;;;;8.00;93.20;;;;;;5088561;28;19944;-71
2021/12/29 02:30:20;;;;;;;;;;;8.10;93.50;;;;;;5096019;28;19964;-71
2021/12/29 02:32:46;;;;;;;;;;;8.20;93.70;;;;;;5095949;28;19946;-71
2021/12/29 02:35:13;;;;;;;;;;;8.30;93.70;;;;;;5078214;28;19943;-71
2021/12/29 02:37:39;;;;;;;;;;;8.30;93.60;;;;;;5075686;28;20031;-71
2021/12/29 02:40:06;;;;;;;;;;;8.40;93.20;;;;;;5075646;28;20067;-71
2021/12/29 02:42:38;;;;;;;;;;;8.30;93.00;;;;;;5074349;28;19947;-71
2021/12/29 02:45:06;;;;;;;;;;;8.30;92.60;;;;;;5074273;28;19948;-71
2021/12/29 02:47:31;;;;;;;;;;;8.10;92.70;;;;;;5075568;28;19935;-71
2021/12/29 02:49:57;;;;;;;;;;;7.90;93.30;;;;;;5076772;28;19987;-71
2021/12/29 02:52:24;;;;;;;;;;;7.90;93.40;;;;;;5074106;28;19949;-71
2021/12/29 02:54:50;;;;;;;;;;;7.70;93.70;;;;;;5075438;28;20438;-71
2021/12/29 02:57:16;;;;;;;;;;;7.70;94.00;;;;;;5075352;28;19941;-71
2021/12/29 02:59:42;;;;;;;;;;;7.70;94.00;;;;;;5075320;28;20410;-71
2021/12/29 03:02:07;;;;;;;;;;;7.70;94.30;;;;;;5075271;28;19942;-71
2021/12/29 03:04:33;;;;;;;;;;;7.70;94.50;;;;;;5086892;28;20406;-71
2021/12/29 03:06:58;;;;;;;;;;;7.70;94.50;;;;;;5095408;28;20398;-71
2021/12/29 03:09:24;;;;;;;;;;;7.70;94.60;;;;;;5095048;28;19975;-71
2021/12/29 03:11:50;;;;;;;;;;;7.80;94.70;;;;;;5095303;28;19938;-71
2021/12/29 03:14:17;;;;;;;;;;;7.90;94.80;;;;;;5095210;28;19976;-71
2021/12/29 03:16:42;;;;;;;;;;;8.00;94.70;;;;;;5095175;28;19935;-70
2021/12/29 03:19:08;;;;;;;;;;;8.10;94.40;;;;;;5095414;28;19952;-71
2021/12/29 03:21:34;;;;;;;;;;;8.10;94.10;;;;;;5095124;28;19940;-71
2021/12/29 03:24:00;;;;;;;;;;;7.90;92.80;;;;;;5095094;28;19940;-71
2021/12/29 03:26:26;;;;;;;;;;;7.90;92.30;;;;;;5094929;28;19946;-71
2021/12/29 03:28:52;;;;;;;;;;;7.80;92.20;;;;;;5094824;28;19960;-71
2021/12/29 03:31:21;;;;;;;;;;;7.60;92.60;;;;;;5094904;28;19993;-71
2021/12/29 03:33:46;;;;;;;;;;;7.60;92.60;;;;;;5085571;28;20352;-71
2021/12/29 03:36:12;;;;;;;;;;;7.60;92.60;;;;;;5074576;28;20033;-71
2021/12/29 03:38:38;;;;;;;;;;;7.70;92.60;;;;;;5074526;28;19949;-71
2021/12/29 03:41:05;;;;;;;;;;;7.70;92.60;;;;;;5074497;28;20177;-71
2021/12/29 03:43:32;;;;;;;;;;;7.80;92.50;;;;;;5074333;28;20007;-71
2021/12/29 03:45:58;;;;;;;;;;;7.80;92.40;;;;;;5074410;28;19936;-71
2021/12/29 03:48:25;;;;;;;;;;;7.90;92.20;;;;;;5074294;28;19946;-71
2021/12/29 03:50:51;;;;;;;;;;;7.90;91.80;;;;;;5074265;28;19963;-71
2021/12/29 03:53:16;;;;;;;;;;;8.00;91.60;;;;;;5074239;28;20425;-71
2021/12/29 03:55:42;;;;;;;;;;;8.00;91.10;;;;;;5074146;28;20320;-71
2021/12/29 03:58:08;;;;;;;;;;;7.90;90.30;;;;;;5074153;28;19945;-71
2021/12/29 04:00:34;;;;;;;;;;;7.80;90.10;;;;;;5074116;28;20460;-71
2021/12/29 04:03:00;;;;;;;;;;;7.70;90.20;;;;;;5074744;28;19936;-71
2021/12/29 04:05:25;;;;;;;;;;;7.50;90.70;;;;;;5094254;28;19939;-71
2021/12/29 04:07:53;;;;;;;;;;;7.40;91.30;;;;;;5094175;28;20026;-71
2021/12/29 04:10:18;;;;;;;;;;;7.40;91.30;;;;;;5093832;28;19957;-71
2021/12/29 04:12:44;;;;;;;;;;;7.30;91.60;;;;;;5094119;28;19943;-71
2021/12/29 04:15:10;;;;;;;;;;;7.40;91.80;;;;;;5094064;28;20029;-70
2021/12/29 04:17:37;;;;;;;;;;;7.40;91.60;;;;;;5092749;28;19945;-70
2021/12/29 04:22:48;;;;;;;;;;;7.50;91.80;;;;;;5093928;28;19989;-70
2021/12/29 04:25:14;;;;;;;;;;;7.60;91.70;;;;;;5093917;28;19941;-71
2021/12/29 04:27:39;;;;;;;;;;;7.70;91.50;;;;;;5093750;28;19949;-71
2021/12/29 04:30:05;;;;;;;;;;;7.70;91.40;;;;;;5093747;28;20319;-71
2021/12/29 04:32:31;;;;;;;;;;;7.70;91.20;;;;;;5093678;28;19976;-71
2021/12/29 04:34:56;;;;;;;;;;;7.70;91.00;;;;;;5076332;28;20029;-72
2021/12/29 04:37:22;;;;;;;;;;;7.70;90.70;;;;;;5073420;28;19973;-71
2021/12/29 04:39:47;;;;;;;;;;;7.70;90.00;;;;;;5072948;28;19935;-71
2021/12/29 04:42:13;;;;;;;;;;;7.60;89.90;;;;;;5073383;28;19966;-71
2021/12/29 04:44:38;;;;;;;;;;;7.50;90.30;;;;;;5073361;28;19936;-71
2021/12/29 04:47:07;;;;;;;;;;;7.20;91.10;;;;;;5073283;28;20423;-71
2021/12/29 04:49:40;;;;;;;;;;;7.10;91.90;;;;;;5073242;28;19964;-71
2021/12/29 04:52:06;;;;;;;;;;;6.90;92.30;;;;;;5073274;28;20396;-71
2021/12/29 04:54:32;;;;;;;;;;;6.90;92.40;;;;;;5073234;28;19952;-71
2021/12/29 04:56:58;;;;;;;;;;;6.90;92.50;;;;;;5073462;28;19940;-71
2021/12/29 04:59:24;;;;;;;;;;;6.90;92.60;;;;;;5073063;28;20059;-71
2021/12/29 05:01:49;;;;;;;;;;;7.00;92.70;;;;;;5073117;28;19983;-71
2021/12/29 05:04:29;;;;;;;;;;;7.10;92.40;;;;;;5074207;28;20036;-70
2021/12/29 05:09:40;;;;;;;;;;;7.00;92.60;;;;;;5064460;22;19958;-70
2021/12/29 05:12:06;;;;;;;;;;;7.10;92.70;;;;;;5053015;28;19936;-70
2021/12/29 05:14:31;;;;;;;;;;;7.10;92.70;;;;;;5051677;28;19991;-70
2021/12/29 05:16:57;;;;;;;;;;;7.10;92.60;;;;;;5052967;28;19948;-70
2021/12/29 05:19:22;;;;;;;;;;;7.10;92.60;;;;;;5052955;28;19949;-71
2021/12/29 05:21:48;;;;;;;;;;;7.30;92.20;;;;;;5052928;28;19940;-71
2021/12/29 05:24:13;;;;;;;;;;;7.00;91.50;;;;;;5052918;28;19950;-71
2021/12/29 05:26:39;;;;;;;;;;;6.80;92.10;;;;;;5052753;28;19986;-71
2021/12/29 05:29:05;;;;;;;;;;;6.60;92.80;;;;;;5052803;28;20013;-70
2021/12/29 05:31:30;;;;;;;;;;;6.50;92.90;;;;;;5052833;28;19995;-71
2021/12/29 05:33:56;;;;;;;;;;;6.60;93.00;;;;;;5052533;28;19969;-71
2021/12/29 05:36:22;;;;;;;;;;;6.50;93.20;;;;;;5052823;28;19965;-70
2021/12/29 05:38:47;;;;;;;;;;;6.40;93.40;;;;;;5052716;28;19937;-70
2021/12/29 05:41:13;;;;;;;;;;;6.40;93.50;;;;;;5052326;28;19975;-71
2021/12/29 05:43:38;;;;;;;;;;;6.40;93.70;;;;;;5052411;28;20123;-71
2021/12/29 05:46:04;;;;;;;;;;;6.40;94.00;;;;;;5052705;28;20348;-71
2021/12/29 05:48:29;;;;;;;;;;;6.50;94.20;;;;;;5052464;28;19941;-71
2021/12/29 05:50:55;;;;;;;;;;;6.60;94.20;;;;;;5052225;28;19949;-71
2021/12/29 05:53:21;;;;;;;;;;;6.60;94.30;;;;;;5056267;28;20409;-71
2021/12/29 05:55:47;;;;;;;;;;;6.70;94.20;;;;;;5056474;28;20401;-71
2021/12/29 05:58:12;;;;;;;;;;;6.70;94.00;;;;;;5056101;28;20387;-71
2021/12/29 06:00:39;;;;;;;;;;;6.70;94.00;;;;;;5056418;28;19948;-71
2021/12/29 06:03:05;;;;;;;;;;;6.60;93.70;;;;;;5055488;28;19980;-71
2021/12/29 06:05:31;;;;;;;;;;;6.60;93.40;;;;;;5055947;28;19999;-71
2021/12/29 06:07:56;;;;;;;;;;;6.50;93.50;;;;;;5056120;28;19948;-71
2021/12/29 06:10:22;;;;;;;;;;;6.40;93.40;;;;;;5056323;28;19972;-70
2021/12/29 06:12:48;;;;;;;;;;;5.90;94.20;;;;;;5056133;28;20397;-70
2021/12/29 06:15:13;;;;;;;;;;;5.80;94.90;;;;;;5056165;28;19937;-70
2021/12/29 06:17:39;;;;;;;;;;;5.80;95.30;;;;;;5056059;28;20420;-70
2021/12/29 06:20:06;;;;;;;;;;;5.90;95.30;;;;;;5056312;28;19943;-70
2021/12/29 06:22:32;;;;;;;;;;;5.80;95.30;;;;;;5055942;28;20419;-70
2021/12/29 06:24:58;;;;;;;;;;;5.60;95.30;;;;;;5055922;28;19967;-70
2021/12/29 06:27:24;;;;;;;;;;;5.40;95.70;;;;;;5050777;28;19949;-71
2021/12/29 06:29:50;;;;;;;;;;;5.40;95.80;;;;;;5047785;28;19960;-71
2021/12/29 06:32:16;;;;;;;;;;;5.40;95.90;;;;;;5048885;28;19947;-71
2021/12/29 06:34:41;;;;;;;;;;;5.40;96.00;;;;;;5044845;28;19969;-71
2021/12/29 06:37:12;;;;;;;;;;;5.40;96.00;;;;;;5052121;28;20413;-72
2021/12/29 06:39:38;;;;;;;;;;;5.40;96.00;;;;;;5043504;28;19939;-71
2021/12/29 06:42:04;;;;;;;;;;;5.30;96.00;;;;;;5047644;28;20039;-71
2021/12/29 06:44:29;;;;;;;;;;;5.20;96.10;;;;;;5042797;28;20072;-71
2021/12/29 06:46:55;;;;;;;;;;;5.20;96.30;;;;;;5051286;28;20033;-71
2021/12/29 06:49:21;;;;;;;;;;;5.10;96.70;;;;;;5050338;28;19955;-70
2021/12/29 06:51:47;;;;;;;;;;;5.10;96.80;;;;;;5043990;28;20440;-70
2021/12/29 06:54:13;;;;;;;;;;;5.20;96.90;;;;;;5036411;28;19945;-70
2021/12/29 06:56:38;;;;;;;;;;;5.20;96.90;;;;;;5050149;28;20297;-70
2021/12/29 06:59:04;;;;;;;;;;;5.20;97.00;;;;;;5048389;28;20031;-70
2021/12/29 07:01:29;;;;;;;;;;;5.30;97.10;;;;;;5051165;28;19975;-68
2021/12/29 07:03:55;;;;;;;;;;;5.40;97.20;;;;;;5043833;28;20319;-68
2021/12/29 07:06:21;;;;;;;;;;;5.40;97.20;;;;;;5044435;28;20314;-68
2021/12/29 07:08:46;;;;;;;;;;;5.40;97.20;;;;;;5047898;28;20347;-76
2021/12/29 07:11:12;;;;;;;;;;;5.50;97.20;;;;;;5043662;28;19962;-73
2021/12/29 07:13:37;;;;;;;;;;;5.50;97.20;;;;;;5046664;28;19993;-73
2021/12/29 07:16:03;;;;;;;;;;;5.60;97.20;;;;;;5046050;28;19958;-74
2021/12/29 07:18:28;;;;;;;;;;;5.60;97.20;;;;;;5049606;28;19966;-73
2021/12/29 07:20:54;;;;;;;;;;;5.60;97.20;;;;;;5046143;28;19955;-73
2021/12/29 07:23:20;;;;;;;;;;;5.60;97.20;;;;;;5042721;28;19956;-73
2021/12/29 07:25:45;;;;;;;;;;;5.50;97.20;;;;;;5047339;28;19955;-73
2021/12/29 07:28:11;;;;;;;;;;;5.60;97.20;;;;;;5052322;28;20336;-72
2021/12/29 07:30:36;;;;;;;;;;;5.60;97.20;;;;;;5052018;28;19953;-72
2021/12/29 07:33:02;;;;;;;;;;;5.60;97.20;;;;;;5044957;28;19940;-71
2021/12/29 07:35:28;;;;;;;;;;;5.70;97.30;;;;;;5048922;28;19956;-71
2021/12/29 07:37:53;;;;;;;;;;;5.60;97.20;;;;;;5041529;28;20046;-72
2021/12/29 07:40:19;;;;;;;;;;;5.60;97.20;;;;;;5043974;28;20384;-71
2021/12/29 07:42:45;;;;;;;;;;;5.60;97.20;;;;;;5051455;28;19955;-72
2021/12/29 07:45:11;;;;;;;;;;;5.60;97.10;;;;;;5048285;28;19959;-71
2021/12/29 07:47:45;;;;;;;;;;;5.60;97.20;;;;;;5046749;28;19949;-71
2021/12/29 07:50:11;;;;;;;;;;;5.50;97.10;;;;;;5048136;28;19967;-71
2021/12/29 07:52:36;;;;;;;;;;;5.50;97.10;;;;;;5047613;28;19947;-71
2021/12/29 07:55:02;;;;;;;;;;;5.40;97.00;;;;;;5042759;28;19949;-70
2021/12/29 07:57:28;;;;;;;;;;;5.40;97.10;;;;;;5044539;28;19949;-71
2021/12/29 07:59:54;;;;;;;;;;;5.50;97.10;;;;;;5045908;28;19972;-74
2021/12/29 08:02:19;;;;;;;;;;;5.50;97.00;;;;;;5046936;28;20341;-72
2021/12/29 08:04:47;;;;;;;;;;;5.60;97.00;;;;;;5045917;28;19942;-69
2021/12/29 08:07:13;;;;;;;;;;;5.60;97.10;;;;;;5054098;28;19953;-70
2021/12/29 08:09:38;;;;;;;;;;;5.70;97.00;;;;;;5049990;28;19956;-69
2021/12/29 08:12:04;;;;;;;;;;;5.70;97.10;;;;;;5043696;28;19948;-67
2021/12/29 08:14:30;;;;;;;;;;;5.70;97.00;;;;;;5049760;28;19951;-69
2021/12/29 08:16:55;;;;;;;;;;;5.70;97.00;;;;;;5049790;28;19946;-69
2021/12/29 08:19:21;;;;;;;;;;;5.70;96.90;;;;;;5043109;28;20342;-69
2021/12/29 08:21:46;;;;;;;;;;;5.70;96.90;;;;;;5041291;28;20640;-69
2021/12/29 08:24:12;;;;;;;;;;;5.70;96.90;;;;;;5042257;28;20000;-70
2021/12/29 08:26:37;;;;;;;;;;;5.80;96.90;;;;;;5045421;28;19976;-69
2021/12/29 08:29:03;;;;;;;;;;;5.90;96.80;;;;;;5044500;28;20017;-69
2021/12/29 08:31:29;;;;;;;;;;;6.00;96.80;;;;;;5041793;28;20038;-69
2021/12/29 08:33:55;;;;;;;;;;;6.10;96.70;;;;;;5048123;28;19971;-67
2021/12/29 08:36:21;;;;;;;;;;;6.20;96.60;;;;;;5050791;28;19992;-70
2021/12/29 08:38:47;;;;;;;;;;;6.10;96.30;;;;;;5048533;28;20421;-71
2021/12/29 08:41:13;;;;;;;;;;;6.20;96.20;;;;;;5050340;28;20009;-69
2021/12/29 08:43:39;;;;;;;;;;;6.20;96.10;;;;;;5045372;28;19941;-70
2021/12/29 08:46:04;;;;;;;;;;;6.40;96.00;;;;;;5044604;28;19964;-69
2021/12/29 08:48:30;;;;;;;;;;;6.50;96.00;;;;;;5047746;28;20070;-70
2021/12/29 08:50:59;;;;;;;;;;;6.50;95.90;;;;;;5051771;28;20055;-70
2021/12/29 08:53:25;;;;;;;;;;;6.50;95.70;;;;;;5046565;28;19955;-69
2021/12/29 08:55:51;;;;;;;;;;;6.30;95.20;;;;;;5048551;28;19953;-69
2021/12/29 08:58:18;;;;;;;;;;;5.90;94.60;;;;;;5049252;28;19945;-69
2021/12/29 09:00:44;;;;;;;;;;;5.90;95.10;;;;;;5048057;28;20046;-69
2021/12/29 09:03:10;;;;;;;;;;;5.70;95.30;;;;;;5048694;28;20018;-70
2021/12/29 09:05:35;;;;;;;;;;;5.60;95.50;;;;;;5045401;28;20348;-69
2021/12/29 09:08:01;;;;;;;;;;;5.60;95.70;;;;;;5050207;28;19948;-70
2021/12/29 09:10:26;;;;;;;;;;;5.70;95.90;;;;;;5048948;28;19955;-69
2021/12/29 09:12:52;;;;;;;;;;;5.70;95.80;;;;;;5051612;28;20461;-71
2021/12/29 09:15:19;;;;;;;;;;;5.80;95.90;;;;;;5047474;28;19994;-70
2021/12/29 09:17:45;;;;;;;;;;;5.90;96.10;;;;;;5049030;28;19950;-70
2021/12/29 09:20:15;;;;;;;;;;;6.00;96.00;;;;;;5045071;28;20319;-70
2021/12/29 09:22:41;;;;;;;;;;;6.00;95.60;;;;;;5041092;28;19949;-70
2021/12/29 09:25:07;;;;;;;;;;;6.10;95.40;;;;;;5049474;28;20007;-70
2021/12/29 09:27:32;;;;;;;;;;;6.10;95.30;;;;;;5045315;28;19994;-70
2021/12/29 09:29:58;;;;;;;;;;;6.00;95.00;;;;;;5053068;28;19963;-70
2021/12/29 09:32:24;;;;;;;;;;;6.00;94.70;;;;;;5048381;28;20409;-69
2021/12/29 09:34:50;;;;;;;;;;;6.00;94.70;;;;;;5054020;28;20009;-69
2021/12/29 09:37:15;;;;;;;;;;;6.10;94.80;;;;;;5050311;28;20425;-70
2021/12/29 09:39:41;;;;;;;;;;;6.10;94.80;;;;;;5049457;28;19950;-69
2021/12/29 09:42:07;;;;;;;;;;;6.10;94.70;;;;;;5048827;28;19954;-69
2021/12/29 09:44:33;;;;;;;;;;;6.10;94.70;;;;;;5045894;28;19950;-70
2021/12/29 09:46:59;;;;;;;;;;;6.40;95.00;;;;;;5053400;28;20038;-70
2021/12/29 09:49:24;;;;;;;;;;;6.60;95.10;;;;;;5049918;28;19960;-70
2021/12/29 09:51:50;;;;;;;;;;;6.70;94.90;;;;;;5048555;28;19951;-70
2021/12/29 09:54:16;;;;;;;;;;;6.90;94.80;;;;;;5050941;28;19940;-70
2021/12/29 09:56:42;;;;;;;;;;;7.10;94.40;;;;;;5048398;28;20345;-70
2021/12/29 09:59:07;;;;;;;;;;;7.10;93.50;;;;;;5047296;28;19961;-69
2021/12/29 10:01:33;;;;;;;;;;;7.10;92.60;;;;;;5054381;28;20467;-70
2021/12/29 10:03:58;;;;;;;;;;;7.00;92.10;;;;;;5058519;28;21929;-70
2021/12/29 10:06:24;;;;;;;;;;;6.90;92.50;;;;;;5053939;28;20044;-69
2021/12/29 10:08:49;;;;;;;;;;;6.90;92.40;;;;;;5057870;28;19974;-70
2021/12/29 10:11:24;;;;;;;;;;;6.80;92.20;;;;;;5045555;28;19986;-70
2021/12/29 10:13:50;;;;;;;;;;;6.90;93.00;;;;;;5050213;28;20081;-69
2021/12/29 10:16:24;;;;;;;;;;;6.90;92.50;;;;;;5046744;28;19954;-69
2021/12/29 10:18:54;;;;;;;;;;;6.90;92.50;;;;;;5049974;28;20414;-69
2021/12/29 10:21:22;;;;;;;;;;;6.90;92.80;;;;;;5049604;28;19961;-69
2021/12/29 10:23:49;;;;;;;;;;;6.90;92.80;;;;;;5052263;28;20000;-69
2021/12/29 10:26:16;;;;;;;;;;;7.00;93.00;;;;;;5050105;28;20032;-69
2021/12/29 10:28:48;;;;;;;;;;;6.90;93.10;;;;;;5054551;28;20210;-70
2021/12/29 10:31:15;;;;;;;;;;;6.90;93.60;;;;;;5054146;28;19951;-69
2021/12/29 10:33:48;;;;;;;;;;;6.90;93.80;;;;;;5045102;28;20534;-69
2021/12/29 10:36:24;;;;;;;;;;;6.90;93.90;;;;;;5052023;28;20172;-69
2021/12/29 10:38:55;;;;;;;;;;;6.90;94.00;;;;;;5047475;28;19955;-69
2021/12/29 10:41:21;;;;;;;;;;;6.90;94.30;;;;;;5051726;28;19949;-70
2021/12/29 10:43:54;;;;;;;;;;;6.80;94.60;;;;;;5042221;28;20022;-70
2021/12/29 10:46:21;;;;;;;;;;;6.90;94.70;;;;;;5049480;28;20365;-69
2021/12/29 10:48:48;;;;;;;;;;;6.90;94.80;;;;;;5044512;28;19963;-70
2021/12/29 10:51:14;;;;;;;;;;;6.90;94.70;;;;;;5053749;28;20326;-70
2021/12/29 10:53:39;;;;;;;;;;;6.90;94.40;;;;;;5049235;28;20036;-69
2021/12/29 10:56:06;;;;;;;;;;;7.00;94.30;;;;;;5051092;28;20374;-70
2021/12/29 10:58:34;;;;;;;;;;;7.00;94.30;;;;;;5051134;28;19990;-69
2021/12/29 11:00:59;;;;;;;;;;;7.10;94.30;;;;;;5048818;28;19982;-70
2021/12/29 11:03:25;;;;;;;;;;;7.30;94.40;;;;;;5050821;28;19988;-69
2021/12/29 11:05:58;;;;;;;;;;;7.40;94.10;;;;;;5051834;28;19955;-70
2021/12/29 11:08:25;;;;;;;;;;;7.50;93.50;;;;;;5046505;28;20401;-69
2021/12/29 11:10:52;;;;;;;;;;;7.70;93.40;;;;;;5047177;28;19957;-69
2021/12/29 11:13:25;;;;;;;;;;;7.80;93.00;;;;;;5043011;28;20430;-70
2021/12/29 11:15:52;;;;;;;;;;;7.90;92.80;;;;;;5049742;28;19948;-70
2021/12/29 11:18:17;;;;;;;;;;;8.00;92.40;;;;;;5050322;28;20033;-70
2021/12/29 11:20:43;;;;;;;;;;;8.10;91.00;;;;;;5048604;28;19973;-69
2021/12/29 11:23:13;;;;;;;;;;;8.00;90.40;;;;;;5048177;28;20291;-69
2021/12/29 11:25:39;;;;;;;;;;;8.10;90.80;;;;;;5063677;28;19954;-70
2021/12/29 11:28:05;;;;;;;;;;;8.20;90.50;;;;;;5051063;28;19949;-70
2021/12/29 11:30:31;;;;;;;;;;;8.10;90.50;;;;;;5050743;28;19970;-70
2021/12/29 11:33:07;;;;;;;;;;;8.10;90.70;;;;;;5050153;28;19941;-70
2021/12/29 11:35:37;;;;;;;;;;;8.40;90.60;;;;;;5054744;28;19960;-70
2021/12/29 11:38:03;;;;;;;;;;;8.70;90.50;;;;;;5056446;28;20414;-70
2021/12/29 11:40:30;;;;;;;;;;;9.00;90.10;;;;;;5059336;28;19956;-71
2021/12/29 11:42:56;;;;;;;;;;;9.30;89.60;;;;;;5070709;28;19951;-70
2021/12/29 11:45:21;;;;;;;;;;;9.70;88.20;;;;;;5059359;28;20363;-71
2021/12/29 11:47:47;;;;;;;;;;;9.90;87.10;;;;;;5060538;28;19954;-71
2021/12/29 11:50:18;;;;;;;;;;;10.30;87.00;;;;;;5056250;28;19953;-70
2021/12/29 11:52:59;;;;;;;;;;;10.70;84.10;;;;;;5053312;28;19996;-70
2021/12/29 11:55:30;;;;;;;;;;;10.80;82.90;;;;;;5059117;28;20051;-70
2021/12/29 11:58:06;;;;;;;;;;;10.80;82.20;;;;;;5051235;28;19966;-70
2021/12/29 12:00:31;;;;;;;;;;;10.80;82.00;;;;;;5047669;28;19947;-70
2021/12/29 12:03:05;;;;;;;;;;;10.70;81.80;;;;;;5047032;28;19963;-70
2021/12/29 12:05:35;;;;;;;;;;;10.70;81.30;;;;;;5044716;28;19944;-70
2021/12/29 12:08:05;;;;;;;;;;;10.60;81.00;;;;;;5046325;28;19940;-70
2021/12/29 12:10:35;;;;;;;;;;;10.70;81.30;;;;;;5041994;28;19976;-71
2021/12/29 12:13:02;;;;;;;;;;;10.70;81.50;;;;;;5051977;28;19948;-71
2021/12/29 12:15:33;;;;;;;;;;;10.70;80.70;;;;;;5045403;28;20083;-71
2021/12/29 12:18:06;;;;;;;;;;;10.80;79.70;;;;;;5053181;28;20420;-70
2021/12/29 12:20:58;;;;;;;;;;;10.80;79.60;;;;;;5048463;28;20467;-70
2021/12/29 12:23:28;;;;;;;;;;;10.60;80.00;;;;;;5049598;28;19949;-70
2021/12/29 12:25:54;;;;;;;;;;;10.60;80.00;;;;;;5048560;28;19947;-70
2021/12/29 12:28:24;;;;;;;;;;;10.40;80.90;;;;;;5052027;28;19970;-70
2021/12/29 12:30:53;;;;;;;;;;;10.00;82.20;;;;;;5041098;28;20023;-71
2021/12/29 12:33:28;;;;;;;;;;;10.00;82.10;;;;;;5043606;28;19953;-71
2021/12/29 12:35:55;;;;;;;;;;;9.80;82.50;;;;;;5054171;28;19944;-71
2021/12/29 12:38:22;;;;;;;;;;;9.70;83.20;;;;;;5037894;28;20402;-71
2021/12/29 12:41:06;;;;;;;;;;;9.50;84.50;;;;;;5046906;28;19994;-71
2021/12/29 12:43:32;;;;;;;;;;;9.60;84.10;;;;;;5043006;28;19945;-71
2021/12/29 12:45:58;;;;;;;;;;;9.60;83.00;;;;;;5044758;28;19998;-71
2021/12/29 12:48:25;;;;;;;;;;;9.60;83.20;;;;;;5045657;28;19956;-71
2021/12/29 12:50:51;;;;;;;;;;;9.70;83.60;;;;;;5045863;28;19971;-72
2021/12/29 12:53:26;;;;;;;;;;;9.60;82.70;;;;;;5041829;28;20354;-72
2021/12/29 12:55:54;;;;;;;;;;;9.70;82.90;;;;;;5041222;28;19987;-72
2021/12/29 12:58:20;;;;;;;;;;;9.70;82.60;;;;;;5043868;28;19949;-71
2021/12/29 13:01:09;;;;;;;;;;;9.70;83.50;;;;;;5046606;28;19990;-71
2021/12/29 13:03:34;;;;;;;;;;;9.60;83.60;;;;;;5048041;28;20076;-72
2021/12/29 13:06:01;;;;;;;;;;;9.40;83.80;;;;;;5052261;28;19990;-71
2021/12/29 13:08:28;;;;;;;;;;;9.40;84.20;;;;;;5060141;23;20511;-71
2021/12/29 13:10:57;;;;;;;;;;;9.30;84.80;;;;;;5048795;28;22374;-72
2021/12/29 13:13:24;;;;;;;;;;;9.20;84.50;;;;;;5033251;28;20120;-72
2021/12/29 13:15:51;;;;;;;;;;;9.20;84.90;;;;;;5052315;28;19953;-73
2021/12/29 13:18:17;;;;;;;;;;;9.20;84.70;;;;;;5051572;28;19951;-71
2021/12/29 13:20:43;;;;;;;;;;;9.30;85.20;;;;;;5050077;28;19955;-73
2021/12/29 13:23:10;;;;;;;;;;;9.40;84.30;;;;;;5031331;28;19956;-73
2021/12/29 13:25:38;;;;;;;;;;;9.50;84.00;;;;;;5051493;28;19976;-73
2021/12/29 13:28:05;;;;;;;;;;;9.50;84.00;;;;;;5042989;28;19979;-73
2021/12/29 13:30:35;;;;;;;;;;;9.40;83.50;;;;;;5048754;28;19962;-72
2021/12/29 13:33:01;;;;;;;;;;;9.40;83.20;;;;;;5047349;28;20406;-72
2021/12/29 13:35:31;;;;;;;;;;;9.30;83.40;;;;;;5047939;28;19947;-72
2021/12/29 13:37:58;;;;;;;;;;;9.20;83.90;;;;;;5047929;28;19947;-73
2021/12/29 13:40:28;;;;;;;;;;;9.00;84.40;;;;;;5047575;28;19996;-72
2021/12/29 13:42:54;;;;;;;;;;;9.00;84.50;;;;;;5045677;28;19953;-72
2021/12/29 13:45:21;;;;;;;;;;;8.90;84.60;;;;;;5049525;28;19995;-72
2021/12/29 13:47:47;;;;;;;;;;;8.90;85.10;;;;;;5031241;28;20327;-72
2021/12/29 13:50:13;;;;;;;;;;;8.90;84.90;;;;;;5049150;28;19967;-72
2021/12/29 13:52:38;;;;;;;;;;;9.10;84.80;;;;;;5027374;28;20614;-72
2021/12/29 13:55:04;;;;;;;;;;;9.10;84.50;;;;;;5048448;28;20400;-72
2021/12/29 13:57:30;;;;;;;;;;;9.20;84.30;;;;;;5050063;28;19944;-73
2021/12/29 13:59:58;;;;;;;;;;;9.20;84.50;;;;;;5046432;28;19955;-73
2021/12/29 14:02:24;;;;;;;;;;;9.20;84.40;;;;;;5046949;28;19996;-73
2021/12/29 14:04:50;;;;;;;;;;;9.20;84.20;;;;;;5048891;28;19946;-73
2021/12/29 14:07:16;;;;;;;;;;;9.30;84.10;;;;;;5047667;28;20429;-73
2021/12/29 14:09:42;;;;;;;;;;;9.20;84.10;;;;;;5045917;28;19974;-72
2021/12/29 14:12:09;;;;;;;;;;;9.30;84.00;;;;;;5043719;28;19949;-73
2021/12/29 14:14:35;;;;;;;;;;;9.20;84.10;;;;;;5050574;28;19951;-72
2021/12/29 14:17:01;;;;;;;;;;;9.20;84.20;;;;;;5050432;28;19954;-72
2021/12/29 14:19:28;;;;;;;;;;;9.20;84.20;;;;;;5053277;28;20306;-72
2021/12/29 14:21:54;;;;;;;;;;;9.30;84.00;;;;;;5050966;28;20001;-71
2021/12/29 14:24:21;;;;;;;;;;;9.30;83.70;;;;;;5051313;28;20054;-72
2021/12/29 14:26:57;;;;;;;;;;;9.30;84.20;;;;;;5052190;28;20029;-72
2021/12/29 14:29:30;;;;;;;;;;;9.30;84.90;;;;;;5051920;28;20013;-72
2021/12/29 14:31:55;;;;;;;;;;;9.50;85.20;;;;;;5051474;28;19956;-73
2021/12/29 14:34:22;;;;;;;;;;;9.50;84.40;;;;;;5048945;28;20453;-73